createdAt,value
2022-08-09T00:00:50.440Z,101642.88
2022-08-09T00:01:56.271Z,101639.28
2022-08-09T00:03:01.058Z,101637.94
2022-08-09T00:04:15.262Z,101645.66
2022-08-09T00:06:18.957Z,101644.88
2022-08-09T00:06:47.928Z,101637.84
2022-08-09T00:07:49.683Z,101643.28
2022-08-09T00:08:57.475Z,101645.22
2022-08-09T00:09:59.657Z,101650.56
2022-08-09T00:11:05.991Z,101643.28
2022-08-09T00:12:29.838Z,101650.19
2022-08-09T00:13:38.331Z,101644.72
2022-08-09T00:14:40.349Z,101638.06
2022-08-09T00:15:59.508Z,101648.25
2022-08-09T00:17:04.239Z,101644.88
2022-08-09T00:18:11.331Z,101644.53
2022-08-09T00:19:18.444Z,101643.41
2022-08-09T00:20:23.065Z,101645.13
2022-08-09T00:21:25.207Z,101644.06
2022-08-09T00:22:31.727Z,101646.00
2022-08-09T00:23:57.235Z,101649.78
2022-08-09T00:25:00.180Z,101642.97
2022-08-09T00:26:07.265Z,101643.84
2022-08-09T00:27:10.790Z,101639.66
2022-08-09T00:28:12.797Z,101638.19
2022-08-09T00:30:10.417Z,101644.69
2022-08-09T00:30:37.775Z,101646.25
2022-08-09T00:32:00.055Z,101647.31
2022-08-09T00:33:01.840Z,101648.19
2022-08-09T00:34:03.680Z,101636.94
2022-08-09T00:35:09.186Z,101648.66
2022-08-09T00:36:12.324Z,101641.38
2022-08-09T00:37:15.621Z,101643.31
2022-08-09T00:38:21.451Z,101639.16
2022-08-09T00:40:14.007Z,101641.25
2022-08-09T00:40:52.657Z,101638.72
2022-08-09T00:44:11.784Z,101647.16
2022-08-09T00:44:16.858Z,101650.28
2022-08-09T00:44:46.955Z,101642.56
2022-08-09T00:45:53.775Z,101647.00
2022-08-09T00:47:05.010Z,101640.94
2022-08-09T00:48:10.062Z,101643.50
2022-08-09T00:49:17.660Z,101643.28
2022-08-09T00:50:25.403Z,101647.78
2022-08-09T00:51:33.770Z,101646.34
2022-08-09T00:52:37.214Z,101654.06
2022-08-09T00:53:40.063Z,101650.19
2022-08-09T00:54:41.753Z,101648.34
2022-08-09T00:56:03.127Z,101651.06
2022-08-09T00:57:10.215Z,101653.44
2022-08-09T00:58:14.580Z,101652.06
2022-08-09T00:59:20.139Z,101652.56
2022-08-09T01:00:40.862Z,101654.06
2022-08-09T01:01:45.312Z,101647.94
2022-08-09T01:02:50.225Z,101650.22
2022-08-09T01:04:01.086Z,101656.06
2022-08-09T01:05:03.311Z,101649.50
2022-08-09T01:06:17.942Z,101658.41
2022-08-09T01:07:37.884Z,101655.56
2022-08-09T01:09:20.188Z,101657.41
2022-08-09T01:10:39.050Z,101654.84
2022-08-09T01:12:00.068Z,101654.16
2022-08-09T01:13:53.538Z,101653.63
2022-08-09T01:14:58.298Z,101655.13
2022-08-09T01:16:04.998Z,101650.72
2022-08-09T01:17:12.174Z,101651.00
2022-08-09T01:18:30.378Z,101658.28
2022-08-09T01:19:40.042Z,101653.28
2022-08-09T01:21:17.493Z,101659.34
2022-08-09T01:23:04.510Z,101651.41
2022-08-09T01:24:18.704Z,101655.19
2022-08-09T01:25:41.507Z,101655.59
2022-08-09T01:27:15.336Z,101648.88
2022-08-09T01:28:22.390Z,101654.03
2022-08-09T01:29:41.135Z,101648.69
2022-08-09T01:30:59.046Z,101648.94
2022-08-09T01:32:32.698Z,101656.50
2022-08-09T01:33:29.808Z,101651.44
2022-08-09T01:34:35.341Z,101650.06
2022-08-09T01:35:51.835Z,101644.97
2022-08-09T01:36:57.794Z,101659.13
2022-08-09T01:38:08.161Z,101654.34
2022-08-09T01:39:14.064Z,101658.41
2022-08-09T01:40:23.093Z,101659.97
2022-08-09T01:41:32.920Z,101656.88
2022-08-09T01:42:36.866Z,101657.81
2022-08-09T01:43:51.889Z,101661.75
2022-08-09T01:44:55.837Z,101656.88
2022-08-09T01:45:58.120Z,101664.47
2022-08-09T01:47:02.738Z,101660.16
2022-08-09T01:48:06.237Z,101658.19
2022-08-09T01:49:21.129Z,101658.06
2022-08-09T01:50:36.639Z,101661.09
2022-08-09T01:51:53.922Z,101664.41
2022-08-09T01:52:57.992Z,101663.97
2022-08-09T01:54:07.154Z,101658.47
2022-08-09T01:55:10.866Z,101662.56
2022-08-09T01:56:13.531Z,101661.03
2022-08-09T01:57:23.798Z,101661.69
2022-08-09T01:58:29.868Z,101654.91
2022-08-09T01:59:32.738Z,101661.13
2022-08-09T02:00:46.372Z,101661.94
2022-08-09T02:01:59.367Z,101660.09
2022-08-09T02:03:04.894Z,101660.97
2022-08-09T02:04:09.779Z,101658.25
2022-08-09T02:05:15.730Z,101659.69
2022-08-09T02:06:39.810Z,101666.59
2022-08-09T02:08:38.672Z,101661.69
2022-08-09T02:09:16.491Z,101668.38
2022-08-09T02:10:29.950Z,101666.91
2022-08-09T02:11:42.622Z,101662.09
2022-08-09T02:12:47.095Z,101661.16
2022-08-09T02:14:06.658Z,101658.94
2022-08-09T02:15:11.766Z,101668.75
2022-08-09T02:16:33.844Z,101662.09
2022-08-09T02:18:09.763Z,101660.88
2022-08-09T02:19:10.148Z,101668.75
2022-08-09T02:20:13.060Z,101672.66
2022-08-09T02:21:34.307Z,101663.81
2022-08-09T02:22:46.346Z,101662.03
2022-08-09T02:23:54.523Z,101668.25
2022-08-09T02:25:00.423Z,101661.09
2022-08-09T02:26:04.935Z,101669.34
2022-08-09T02:27:09.710Z,101667.66
2022-08-09T02:28:20.148Z,101666.94
2022-08-09T02:29:29.225Z,101662.41
2022-08-09T02:31:05.898Z,101668.03
2022-08-09T02:32:11.023Z,101663.69
2022-08-09T02:33:17.330Z,101662.00
2022-08-09T02:34:40.644Z,101660.84
2022-08-09T02:36:03.897Z,101667.59
2022-08-09T02:37:12.324Z,101666.22
2022-08-09T02:38:22.064Z,101659.84
2022-08-09T02:39:41.867Z,101660.84
2022-08-09T02:40:46.651Z,101662.06
2022-08-09T02:41:56.559Z,101661.69
2022-08-09T02:43:01.638Z,101658.00
2022-08-09T02:44:13.798Z,101660.16
2022-08-09T02:45:34.458Z,101664.81
2022-08-09T02:46:38.460Z,101661.13
2022-08-09T02:47:57.170Z,101666.34
2022-08-09T02:49:04.617Z,101652.59
2022-08-09T02:50:24.355Z,101667.91
2022-08-09T02:51:33.043Z,101669.63
2022-08-09T02:52:48.590Z,101674.69
2022-08-09T02:54:00.877Z,101664.66
2022-08-09T02:55:15.203Z,101664.47
2022-08-09T02:56:23.897Z,101674.97
2022-08-09T02:57:30.984Z,101669.66
2022-08-09T02:58:44.376Z,101669.34
2022-08-09T03:00:21.273Z,101666.56
2022-08-09T03:01:15.308Z,101674.69
2022-08-09T03:02:24.522Z,101676.22
2022-08-09T03:04:12.470Z,101678.19
2022-08-09T03:04:52.253Z,101673.00
2022-08-09T03:05:57.142Z,101668.78
2022-08-09T03:07:12.438Z,101672.19
2022-08-09T03:08:17.128Z,101673.94
2022-08-09T03:09:20.476Z,101674.75
2022-08-09T03:10:24.308Z,101670.38
2022-08-09T03:12:04.393Z,101672.28
2022-08-09T03:12:52.023Z,101666.13
2022-08-09T03:14:01.186Z,101665.56
2022-08-09T03:15:05.891Z,101665.41
2022-08-09T03:16:08.461Z,101665.47
2022-08-09T03:17:20.503Z,101665.28
2022-08-09T03:18:30.657Z,101664.53
2022-08-09T03:19:52.737Z,101664.66
2022-08-09T03:20:57.587Z,101673.00
2022-08-09T03:22:03.139Z,101667.59
2022-08-09T03:23:14.977Z,101672.78
2022-08-09T03:24:31.606Z,101670.81
2022-08-09T03:25:59.079Z,101666.38
2022-08-09T03:27:09.481Z,101670.88
2022-08-09T03:28:13.769Z,101667.38
2022-08-09T03:29:22.788Z,101663.97
2022-08-09T03:30:29.800Z,101668.63
2022-08-09T03:31:42.532Z,101662.31
2022-08-09T03:32:59.947Z,101672.28
2022-08-09T03:34:03.193Z,101670.66
2022-08-09T03:35:24.277Z,101670.75
2022-08-09T03:36:28.074Z,101677.41
2022-08-09T03:37:55.548Z,101672.19
2022-08-09T03:38:52.021Z,101674.47
2022-08-09T03:39:56.606Z,101667.53
2022-08-09T03:40:58.549Z,101672.72
2022-08-09T03:42:06.893Z,101675.47
2022-08-09T03:43:08.989Z,101674.75
2022-08-09T03:44:13.419Z,101680.22
2022-08-09T03:45:17.559Z,101676.72
2022-08-09T03:46:39.509Z,101673.13
2022-08-09T03:47:44.109Z,101677.53
2022-08-09T03:48:57.013Z,101679.50
2022-08-09T03:50:00.837Z,101673.22
2022-08-09T03:51:07.275Z,101679.34
2022-08-09T03:52:30.331Z,101674.09
2022-08-09T03:53:37.670Z,101679.44
2022-08-09T03:54:40.627Z,101678.69
2022-08-09T03:55:42.512Z,101684.75
2022-08-09T03:56:46.632Z,101679.94
2022-08-09T03:58:03.132Z,101688.94
2022-08-09T03:59:13.697Z,101682.59
2022-08-09T04:00:23.228Z,101686.16
2022-08-09T04:01:25.114Z,101688.94
2022-08-09T04:02:32.559Z,101684.75
2022-08-09T04:04:00.458Z,101684.75
2022-08-09T04:05:05.983Z,101684.84
2022-08-09T04:06:08.604Z,101685.75
2022-08-09T04:07:14.395Z,101687.38
2022-08-09T04:08:16.366Z,101688.00
2022-08-09T04:09:44.392Z,101690.53
2022-08-09T04:10:40.657Z,101695.53
2022-08-09T04:11:59.527Z,101689.75
2022-08-09T04:13:11.307Z,101695.00
2022-08-09T04:14:53.016Z,101690.63
2022-08-09T04:15:52.400Z,101693.84
2022-08-09T04:16:57.436Z,101691.72
2022-08-09T04:17:59.134Z,101702.41
2022-08-09T04:19:01.134Z,101697.25
2022-08-09T04:20:04.527Z,101695.66
2022-08-09T04:21:06.868Z,101696.66
2022-08-09T04:22:13.084Z,101695.72
2022-08-09T04:23:16.746Z,101702.00
2022-08-09T04:24:19.345Z,101703.53
2022-08-09T04:25:21.819Z,101703.41
2022-08-09T04:26:23.827Z,101701.94
2022-08-09T04:27:25.820Z,101703.84
2022-08-09T04:28:35.902Z,101700.84
2022-08-09T04:29:38.302Z,101706.09
2022-08-09T04:30:42.753Z,101706.25
2022-08-09T04:31:47.634Z,101703.78
2022-08-09T04:32:50.896Z,101712.41
2022-08-09T04:33:57.059Z,101707.16
2022-08-09T04:35:01.594Z,101710.06
2022-08-09T04:36:03.769Z,101710.16
2022-08-09T04:37:05.933Z,101706.53
2022-08-09T04:38:07.925Z,101712.25
2022-08-09T04:39:09.687Z,101716.78
2022-08-09T04:40:28.449Z,101707.25
2022-08-09T04:41:43.421Z,101721.41
2022-08-09T04:42:45.916Z,101717.91
2022-08-09T04:44:05.574Z,101721.34
2022-08-09T04:45:11.568Z,101719.38
2022-08-09T04:46:19.224Z,101723.75
2022-08-09T04:47:59.485Z,101720.38
2022-08-09T04:48:58.538Z,101718.03
2022-08-09T04:50:00.385Z,101724.41
2022-08-09T04:51:02.249Z,101712.69
2022-08-09T04:52:05.986Z,101724.78
2022-08-09T04:53:13.170Z,101721.28
2022-08-09T04:54:15.514Z,101724.63
2022-08-09T04:55:19.245Z,101726.16
2022-08-09T04:56:21.515Z,101724.13
2022-08-09T04:57:58.854Z,101724.81
2022-08-09T04:58:50.886Z,101722.47
2022-08-09T04:59:54.499Z,101728.47
2022-08-09T05:00:56.340Z,101716.47
2022-08-09T05:02:02.718Z,101724.25
2022-08-09T05:03:12.777Z,101722.88
2022-08-09T05:04:30.987Z,101720.69
2022-08-09T05:05:52.413Z,101725.81
2022-08-09T05:06:54.888Z,101733.44
2022-08-09T05:07:58.536Z,101725.97
2022-08-09T05:09:01.338Z,101734.66
2022-08-09T05:10:03.849Z,101729.56
2022-08-09T05:11:06.709Z,101732.81
2022-08-09T05:12:11.002Z,101733.06
2022-08-09T05:13:14.432Z,101732.03
2022-08-09T05:14:16.322Z,101731.16
2022-08-09T05:15:38.774Z,101725.34
2022-08-09T05:16:58.098Z,101731.56
2022-08-09T05:18:50.949Z,101730.44
2022-08-09T05:19:25.602Z,101722.91
2022-08-09T05:20:30.003Z,101732.56
2022-08-09T05:21:36.635Z,101727.88
2022-08-09T05:23:57.950Z,101724.84
2022-08-09T05:24:12.298Z,101731.88
2022-08-09T05:25:16.367Z,101727.16
2022-08-09T05:26:37.234Z,101728.03
2022-08-09T05:27:46.416Z,101734.00
2022-08-09T05:28:49.854Z,101729.53
2022-08-09T05:29:53.965Z,101736.09
2022-08-09T05:30:56.046Z,101727.41
2022-08-09T05:32:00.472Z,101730.41
2022-08-09T05:33:02.328Z,101729.38
2022-08-09T05:34:03.962Z,101738.31
2022-08-09T05:35:06.615Z,101736.06
2022-08-09T05:36:09.489Z,101729.50
2022-08-09T05:37:13.510Z,101732.28
2022-08-09T05:38:22.039Z,101736.44
2022-08-09T05:39:29.542Z,101737.03
2022-08-09T05:40:37.718Z,101735.03
2022-08-09T05:41:39.532Z,101734.75
2022-08-09T05:42:42.108Z,101738.03
2022-08-09T05:43:45.105Z,101735.06
2022-08-09T05:44:52.856Z,101749.38
2022-08-09T05:45:56.671Z,101737.47
2022-08-09T05:46:59.301Z,101745.53
2022-08-09T05:48:01.457Z,101736.97
2022-08-09T05:49:03.658Z,101745.72
2022-08-09T05:50:25.887Z,101743.28
2022-08-09T05:51:46.061Z,101745.47
2022-08-09T05:52:53.510Z,101747.91
2022-08-09T05:53:57.447Z,101743.19
2022-08-09T05:55:03.113Z,101737.56
2022-08-09T05:56:10.396Z,101748.19
2022-08-09T05:57:19.318Z,101752.47
2022-08-09T05:58:21.244Z,101751.28
2022-08-09T05:59:23.008Z,101754.09
2022-08-09T06:00:32.946Z,101754.63
2022-08-09T06:01:42.722Z,101754.97
2022-08-09T06:02:46.735Z,101754.00
2022-08-09T06:03:58.181Z,101755.03
2022-08-09T06:05:00.952Z,101760.91
2022-08-09T06:06:04.902Z,101761.25
2022-08-09T06:07:08.034Z,101760.56
2022-08-09T06:08:11.460Z,101765.03
2022-08-09T06:09:41.140Z,101759.38
2022-08-09T06:10:37.904Z,101758.66
2022-08-09T06:11:40.946Z,101759.41
2022-08-09T06:13:12.405Z,101757.31
2022-08-09T06:14:20.930Z,101757.63
2022-08-09T06:15:22.576Z,101754.06
2022-08-09T06:16:29.534Z,101759.22
2022-08-09T06:17:39.875Z,101760.09
2022-08-09T06:18:41.809Z,101762.34
2022-08-09T06:19:44.102Z,101762.13
2022-08-09T06:20:54.275Z,101764.38
2022-08-09T06:21:58.822Z,101758.91
2022-08-09T06:23:00.752Z,101766.31
2022-08-09T06:24:02.773Z,101758.25
2022-08-09T06:25:08.746Z,101766.56
2022-08-09T06:26:20.545Z,101769.56
2022-08-09T06:27:23.377Z,101764.63
2022-08-09T06:28:27.456Z,101764.44
2022-08-09T06:29:33.750Z,101758.28
2022-08-09T06:30:50.359Z,101767.97
2022-08-09T06:32:08.794Z,101762.16
2022-08-09T06:33:40.121Z,101771.34
2022-08-09T06:34:35.995Z,101768.06
2022-08-09T06:35:57.123Z,101771.00
2022-08-09T06:37:00.474Z,101770.88
2022-08-09T06:38:05.771Z,101772.91
2022-08-09T06:39:11.452Z,101783.88
2022-08-09T06:40:21.813Z,101772.19
2022-08-09T06:41:58.824Z,101773.66
2022-08-09T06:42:50.930Z,101777.25
2022-08-09T06:43:53.194Z,101780.38
2022-08-09T06:44:55.369Z,101777.78
2022-08-09T06:46:07.003Z,101785.81
2022-08-09T06:47:12.797Z,101775.53
2022-08-09T06:48:16.825Z,101781.31
2022-08-09T06:50:11.311Z,101772.56
2022-08-09T06:50:54.061Z,101771.91
2022-08-09T06:51:56.073Z,101778.53
2022-08-09T06:52:58.929Z,101774.88
2022-08-09T06:54:01.216Z,101774.66
2022-08-09T06:55:10.045Z,101773.56
2022-08-09T06:56:14.408Z,101780.53
2022-08-09T06:57:16.478Z,101781.97
2022-08-09T07:00:46.607Z,101775.75
2022-08-09T07:00:54.788Z,101772.47
2022-08-09T07:01:02.368Z,101779.53
2022-08-09T07:02:05.882Z,101771.84
2022-08-09T07:03:07.988Z,101770.81
2022-08-09T07:04:20.133Z,101774.81
2022-08-09T07:05:22.227Z,101780.47
2022-08-09T07:06:25.585Z,101775.66
2022-08-09T07:08:00.986Z,101780.56
2022-08-09T07:08:51.613Z,101776.09
2022-08-09T07:10:00.168Z,101775.47
2022-08-09T07:11:23.527Z,101779.06
2022-08-09T07:12:41.121Z,101777.31
2022-08-09T07:13:45.360Z,101772.00
2022-08-09T07:16:38.681Z,101781.81
2022-08-09T07:16:41.008Z,101779.06
2022-08-09T07:17:55.988Z,101778.19
2022-08-09T07:18:58.190Z,101790.19
2022-08-09T07:20:00.651Z,101790.63
2022-08-09T07:21:02.470Z,101789.91
2022-08-09T07:22:10.832Z,101787.31
2022-08-09T07:23:18.736Z,101798.53
2022-08-09T07:24:21.562Z,101797.91
2022-08-09T07:25:38.829Z,101792.28
2022-08-09T07:26:44.467Z,101794.88
2022-08-09T07:27:53.487Z,101798.97
2022-08-09T07:29:08.541Z,101792.91
2022-08-09T07:30:13.468Z,101796.25
2022-08-09T07:31:15.228Z,101796.47
2022-08-09T07:32:17.751Z,101803.31
2022-08-09T07:33:19.809Z,101807.69
2022-08-09T07:34:21.890Z,101801.22
2022-08-09T07:35:30.806Z,101805.75
2022-08-09T07:36:55.014Z,101799.34
2022-08-09T07:37:59.417Z,101801.84
2022-08-09T07:39:02.266Z,101804.75
2022-08-09T07:40:05.146Z,101801.28
2022-08-09T07:41:11.560Z,101803.41
2022-08-09T07:42:15.015Z,101802.59
2022-08-09T07:43:17.229Z,101806.66
2022-08-09T07:44:32.850Z,101808.16
2022-08-09T07:45:40.961Z,101805.94
2022-08-09T07:46:43.126Z,101811.81
2022-08-09T07:48:00.446Z,101815.16
2022-08-09T07:49:03.443Z,101809.22
2022-08-09T07:50:08.505Z,101800.78
2022-08-09T07:52:04.420Z,101807.75
2022-08-09T07:52:33.350Z,101810.38
2022-08-09T07:54:05.290Z,101807.84
2022-08-09T07:55:01.338Z,101807.53
2022-08-09T07:56:26.606Z,101817.19
2022-08-09T07:57:35.947Z,101804.50
2022-08-09T07:58:38.069Z,101809.88
2022-08-09T07:59:45.684Z,101806.00
2022-08-09T08:00:55.947Z,101809.50
2022-08-09T08:02:08.852Z,101809.63
2022-08-09T08:03:11.593Z,101809.47
2022-08-09T08:04:13.271Z,101801.34
2022-08-09T08:05:18.102Z,101808.34
2022-08-09T08:06:21.215Z,101805.59
2022-08-09T08:08:43.723Z,101815.59
2022-08-09T08:09:03.549Z,101808.63
2022-08-09T08:10:10.849Z,101814.72
2022-08-09T08:12:09.275Z,101802.75
2022-08-09T08:12:37.096Z,101806.63
2022-08-09T08:13:56.355Z,101808.47
2022-08-09T08:14:59.819Z,101805.34
2022-08-09T08:16:01.504Z,101811.34
2022-08-09T08:17:08.672Z,101803.13
2022-08-09T08:18:11.112Z,101811.81
2022-08-09T08:19:17.425Z,101809.47
2022-08-09T08:20:32.698Z,101807.97
2022-08-09T08:21:39.806Z,101804.75
2022-08-09T08:22:41.783Z,101802.56
2022-08-09T08:23:43.641Z,101809.53
2022-08-09T08:24:57.636Z,101814.63
2022-08-09T08:26:08.002Z,101806.97
2022-08-09T08:27:16.723Z,101808.91
2022-08-09T08:28:32.471Z,101813.66
2022-08-09T08:29:39.415Z,101815.69
2022-08-09T08:30:47.496Z,101810.31
2022-08-09T08:32:03.705Z,101806.56
2022-08-09T08:33:11.945Z,101804.09
2022-08-09T08:34:25.444Z,101810.31
2022-08-09T08:35:36.973Z,101805.50
2022-08-09T08:36:49.287Z,101803.94
2022-08-09T08:38:02.188Z,101810.47
2022-08-09T08:39:11.594Z,101809.84
2022-08-09T08:40:13.896Z,101803.75
2022-08-09T08:41:16.957Z,101811.97
2022-08-09T08:42:19.182Z,101807.50
2022-08-09T08:43:37.288Z,101804.50
2022-08-09T08:44:41.362Z,101797.97
2022-08-09T08:45:51.655Z,101795.88
2022-08-09T08:47:12.493Z,101793.22
2022-08-09T08:48:19.423Z,101807.75
2022-08-09T08:49:26.804Z,101804.28
2022-08-09T08:50:41.220Z,101798.75
2022-08-09T08:52:00.320Z,101787.22
2022-08-09T08:53:11.979Z,101790.97
2022-08-09T08:54:20.104Z,101795.25
2022-08-09T08:55:24.505Z,101798.06
2022-08-09T08:56:28.466Z,101793.56
2022-08-09T08:57:34.713Z,101791.47
2022-08-09T08:58:37.712Z,101796.97
2022-08-09T08:59:44.766Z,101792.22
2022-08-09T09:00:56.249Z,101792.78
2022-08-09T09:01:59.941Z,101794.06
2022-08-09T09:03:16.436Z,101789.25
2022-08-09T09:04:31.917Z,101790.38
2022-08-09T09:06:00.438Z,101788.31
2022-08-09T09:07:07.962Z,101793.16
2022-08-09T09:08:30.319Z,101794.63
2022-08-09T09:09:58.456Z,101785.31
2022-08-09T09:10:57.685Z,101795.28
2022-08-09T09:11:59.999Z,101792.41
2022-08-09T09:13:09.234Z,101793.97
2022-08-09T09:14:22.192Z,101787.06
2022-08-09T09:15:28.662Z,101790.38
2022-08-09T09:16:34.084Z,101798.38
2022-08-09T09:17:49.034Z,101789.47
2022-08-09T09:19:15.735Z,101799.81
2022-08-09T09:20:17.340Z,101795.59
2022-08-09T09:21:26.080Z,101790.94
2022-08-09T09:22:29.544Z,101795.72
2022-08-09T09:23:57.234Z,101802.78
2022-08-09T09:26:02.186Z,101790.75
2022-08-09T09:26:23.765Z,101788.69
2022-08-09T09:28:06.739Z,101793.50
2022-08-09T09:29:03.663Z,101796.88
2022-08-09T09:30:32.907Z,101790.53
2022-08-09T09:32:06.012Z,101792.94
2022-08-09T09:33:16.287Z,101793.66
2022-08-09T09:34:19.325Z,101798.94
2022-08-09T09:35:21.062Z,101798.22
2022-08-09T09:36:22.699Z,101791.69
2022-08-09T09:37:31.979Z,101794.31
2022-08-09T09:38:57.393Z,101796.50
2022-08-09T09:40:00.771Z,101800.50
2022-08-09T09:41:04.959Z,101796.28
2022-08-09T09:42:24.367Z,101798.78
2022-08-09T09:43:26.374Z,101796.56
2022-08-09T09:44:33.874Z,101794.94
2022-08-09T09:46:41.748Z,101792.31
2022-08-09T09:47:16.603Z,101795.72
2022-08-09T09:48:20.863Z,101793.06
2022-08-09T09:49:49.839Z,101791.16
2022-08-09T09:50:51.076Z,101786.72
2022-08-09T09:52:02.020Z,101786.66
2022-08-09T09:53:04.104Z,101786.56
2022-08-09T09:54:19.251Z,101780.53
2022-08-09T09:55:28.632Z,101787.13
2022-08-09T09:56:36.987Z,101780.28
2022-08-09T09:58:16.371Z,101769.59
2022-08-09T09:59:35.485Z,101773.94
2022-08-09T10:00:44.280Z,101772.59
2022-08-09T10:02:02.498Z,101781.59
2022-08-09T10:03:11.964Z,101777.28
2022-08-09T10:04:22.772Z,101779.91
2022-08-09T10:06:03.674Z,101780.59
2022-08-09T10:06:54.644Z,101773.91
2022-08-09T10:08:25.943Z,101773.47
2022-08-09T10:09:48.610Z,101768.50
2022-08-09T10:10:54.068Z,101766.59
2022-08-09T10:12:14.635Z,101764.06
2022-08-09T10:13:43.082Z,101769.66
2022-08-09T10:14:48.421Z,101763.97
2022-08-09T10:16:55.556Z,101765.09
2022-08-09T10:17:38.785Z,101768.94
2022-08-09T10:18:36.310Z,101770.13
2022-08-09T10:19:40.704Z,101767.63
2022-08-09T10:20:47.827Z,101768.31
2022-08-09T10:21:57.026Z,101763.69
2022-08-09T10:23:21.865Z,101765.91
2022-08-09T10:24:25.676Z,101770.88
2022-08-09T10:26:06.267Z,101764.16
2022-08-09T10:27:01.582Z,101764.44
2022-08-09T10:28:08.199Z,101770.53
2022-08-09T10:29:31.073Z,101766.00
2022-08-09T10:32:28.589Z,101762.44
2022-08-09T10:34:04.599Z,101752.84
2022-08-09T10:34:42.612Z,101764.88
2022-08-09T10:35:47.016Z,101762.63
2022-08-09T10:36:56.895Z,101767.78
2022-08-09T10:38:06.139Z,101762.34
2022-08-09T10:39:29.472Z,101759.50
2022-08-09T10:40:39.007Z,101758.16
2022-08-09T10:41:45.583Z,101762.28
2022-08-09T10:42:53.033Z,101763.84
2022-08-09T10:43:59.646Z,101759.06
2022-08-09T10:45:12.105Z,101755.03
2022-08-09T10:46:57.732Z,101762.38
2022-08-09T10:48:22.685Z,101760.28
2022-08-09T10:49:51.678Z,101760.72
2022-08-09T10:51:09.413Z,101764.56
2022-08-09T10:52:20.545Z,101753.09
2022-08-09T10:53:58.339Z,101746.56
2022-08-09T10:55:28.854Z,101744.66
2022-08-09T10:57:07.736Z,101745.69
2022-08-09T10:58:29.824Z,101751.91
2022-08-09T10:59:31.929Z,101747.88
2022-08-09T11:03:02.652Z,101752.31
2022-08-09T11:03:16.112Z,101754.88
2022-08-09T11:04:30.171Z,101747.56
2022-08-09T11:05:33.803Z,101743.53
2022-08-09T11:06:39.938Z,101748.50
2022-08-09T11:07:57.869Z,101750.09
2022-08-09T11:09:15.957Z,101755.75
2022-08-09T11:10:53.366Z,101751.22
2022-08-09T11:12:00.848Z,101749.63
2022-08-09T11:13:49.234Z,101746.44
2022-08-09T11:14:48.762Z,101741.44
2022-08-09T11:16:04.381Z,101741.19
2022-08-09T11:17:19.401Z,101742.69
2022-08-09T11:18:45.114Z,101745.72
2022-08-09T11:20:20.452Z,101744.66
2022-08-09T11:21:57.305Z,101727.34
2022-08-09T11:23:13.737Z,101733.41
2022-08-09T11:24:15.681Z,101735.09
2022-08-09T11:25:18.678Z,101737.78
2022-08-09T11:26:40.762Z,101735.53
2022-08-09T11:28:08.386Z,101732.41
2022-08-09T11:30:06.077Z,101730.06
2022-08-09T11:31:49.043Z,101739.38
2022-08-09T11:33:04.286Z,101734.19
2022-08-09T11:34:13.309Z,101739.44
2022-08-09T11:35:35.320Z,101731.63
2022-08-09T11:36:51.419Z,101731.44
2022-08-09T11:37:59.282Z,101732.41
2022-08-09T11:39:02.755Z,101736.88
2022-08-09T11:40:07.522Z,101733.66
2022-08-09T11:41:13.835Z,101739.91
2022-08-09T11:42:38.641Z,101729.00
2022-08-09T11:43:48.897Z,101729.69
2022-08-09T11:44:53.114Z,101734.56
2022-08-09T11:46:01.420Z,101732.00
2022-08-09T11:47:03.397Z,101729.91
2022-08-09T11:48:28.173Z,101726.66
2022-08-09T11:50:54.921Z,101727.81
2022-08-09T11:52:56.898Z,101717.78
2022-08-09T11:53:15.991Z,101716.16
2022-08-09T11:54:29.834Z,101710.41
2022-08-09T11:55:53.175Z,101718.44
2022-08-09T11:57:47.363Z,101714.50
2022-08-09T11:59:01.761Z,101719.63
2022-08-09T12:00:16.339Z,101716.00
2022-08-09T12:02:15.839Z,101712.06
2022-08-09T12:02:54.579Z,101719.94
2022-08-09T12:04:04.735Z,101712.56
2022-08-09T12:05:07.185Z,101713.31
2022-08-09T12:06:26.739Z,101708.44
2022-08-09T12:07:42.042Z,101706.59
2022-08-09T12:08:52.057Z,101714.94
2022-08-09T12:09:53.778Z,101709.97
2022-08-09T12:10:59.162Z,101711.69
2022-08-09T12:12:13.151Z,101708.38
2022-08-09T12:14:09.950Z,101711.56
2022-08-09T12:15:48.921Z,101707.84
2022-08-09T12:16:44.062Z,101712.78
2022-08-09T12:17:53.411Z,101709.56
2022-08-09T12:18:59.455Z,101712.22
2022-08-09T12:20:11.265Z,101702.19
2022-08-09T12:21:38.271Z,101712.09
2022-08-09T12:22:41.439Z,101711.63
2022-08-09T12:24:06.303Z,101713.25
2022-08-09T12:25:31.947Z,101714.38
2022-08-09T12:26:44.907Z,101716.56
2022-08-09T12:29:14.404Z,101702.78
2022-08-09T12:29:43.919Z,101706.84
2022-08-09T12:30:57.929Z,101703.69
2022-08-09T12:32:06.160Z,101718.91
2022-08-09T12:33:07.923Z,101707.81
2022-08-09T12:34:09.657Z,101704.38
2022-08-09T12:35:16.978Z,101709.16
2022-08-09T12:36:32.238Z,101708.75
2022-08-09T12:37:50.528Z,101705.81
2022-08-09T12:38:55.436Z,101708.13
2022-08-09T12:40:05.695Z,101706.78
2022-08-09T12:41:07.756Z,101708.09
2022-08-09T12:42:16.386Z,101704.81
2022-08-09T12:43:23.902Z,101705.91
2022-08-09T12:44:46.378Z,101698.69
2022-08-09T12:45:59.630Z,101704.53
2022-08-09T12:47:02.203Z,101697.88
2022-08-09T12:48:19.884Z,101700.81
2022-08-09T12:49:31.448Z,101693.38
2022-08-09T12:50:36.290Z,101690.63
2022-08-09T12:52:00.613Z,101698.06
2022-08-09T12:53:08.773Z,101698.59
2022-08-09T12:54:21.316Z,101697.31
2022-08-09T12:56:12.305Z,101696.31
2022-08-09T12:56:56.340Z,101698.06
2022-08-09T12:58:10.631Z,101690.66
2022-08-09T12:59:39.970Z,101692.78
2022-08-09T13:00:52.725Z,101695.03
2022-08-09T13:02:09.557Z,101703.44
2022-08-09T13:03:24.448Z,101698.81
2022-08-09T13:04:38.156Z,101699.25
2022-08-09T13:05:51.709Z,101694.59
2022-08-09T13:07:19.946Z,101693.53
2022-08-09T13:08:40.933Z,101696.75
2022-08-09T13:09:55.131Z,101702.38
2022-08-09T13:11:00.607Z,101695.47
2022-08-09T13:12:15.196Z,101692.31
2022-08-09T13:14:11.811Z,101697.72
2022-08-09T13:15:08.633Z,101702.50
2022-08-09T13:16:15.757Z,101692.81
2022-08-09T13:17:44.024Z,101686.41
2022-08-09T13:18:44.086Z,101693.69
2022-08-09T13:20:09.709Z,101693.94
2022-08-09T13:22:35.319Z,101693.53
2022-08-09T13:23:01.156Z,101690.22
2022-08-09T13:24:44.348Z,101691.78
2022-08-09T13:25:54.410Z,101687.31
2022-08-09T13:26:58.805Z,101685.66
2022-08-09T13:28:09.651Z,101681.09
2022-08-09T13:29:41.989Z,101686.00
2022-08-09T13:30:50.334Z,101681.41
2022-08-09T13:32:17.272Z,101676.44
2022-08-09T13:33:23.341Z,101674.59
2022-08-09T13:34:30.925Z,101676.91
2022-08-09T13:36:23.483Z,101674.88
2022-08-09T13:36:57.342Z,101675.59
2022-08-09T13:38:00.213Z,101671.38
2022-08-09T13:41:17.773Z,101668.63